Time;durP1;ratioP1;P1;durP2;ratioP2;P2;SDS_P1;SDS_P2;PMS_P1;PMS_P2;Temp;Humidity;BMP_temperature;BMP_pressure;BME280_temperature;BME280_humidity;BME280_pressure;Samples;Min_cycle;Max_cycle;Signal;HPM_P1;HPM_P2
2023/11/21 00:08:05;;;;;;;5.4;2.9;;;;;;;8.56;90.6;;;;;
2023/11/21 00:19:04;;;;;;;5.4;2.9;;;;;;;8.68;90.65;;;;;
2023/11/21 00:30:05;;;;;;;5.1;2.2;;;;;;;8.68;90.58;;;;;
2023/11/21 00:40:05;;;;;;;5.1;2.2;;;;;;;8.72;90.38;;;;;
2023/11/21 00:50:05;;;;;;;5.1;2.2;;;;;;;8.76;90.15;;;;;
2023/11/21 01:01:04;;;;;;;6.7;3.4;;;;;;;8.71;90.07;;;;;
2023/11/21 01:11:04;;;;;;;6.7;3.4;;;;;;;8.59;90.11;;;;;
2023/11/21 01:21:04;;;;;;;13.2;4;;;;;;;8.62;90.02;;;;;
2023/11/21 01:32:04;;;;;;;13.2;4;;;;;;;8.72;89.54;;;;;
2023/11/21 01:42:04;;;;;;;13.2;4;;;;;;;8.69;89.53;;;;;
2023/11/21 01:52:04;;;;;;;7;2.7;;;;;;;8.72;89.3;;;;;
2023/11/21 02:03:04;;;;;;;7;2.7;;;;;;;8.66;88.92;;;;;
2023/11/21 02:14:07;;;;;;;7;2.7;;;;;;;8.63;88.87;;;;;
2023/11/21 02:25:04;;;;;;;6.2;3;;;;;;;8.56;88.36;;;;;
2023/11/21 02:35:07;;;;;;;6.2;3;;;;;;;8.57;88.3;;;;;
2023/11/21 02:46:04;;;;;;;6.2;3;;;;;;;8.56;87.97;;;;;
2023/11/21 02:56:04;;;;;;;4.9;2.6;;;;;;;8.55;87.36;;;;;
2023/11/21 03:07:05;;;;;;;4.9;2.6;;;;;;;8.41;87.35;;;;;
2023/11/21 03:17:04;;;;;;;4.9;2.6;;;;;;;8.44;87.17;;;;;
2023/11/21 03:28:04;;;;;;;5.6;2.6;;;;;;;8.43;87.08;;;;;
2023/11/21 03:38:04;;;;;;;5.6;2.6;;;;;;;8.31;86.93;;;;;
2023/11/21 03:48:04;;;;;;;5.6;2.6;;;;;;;8.25;86.55;;;;;
2023/11/21 03:58:04;;;;;;;8.6;3.1;;;;;;;8.31;86.5;;;;;
2023/11/21 04:08:04;;;;;;;8.6;3.1;;;;;;;8.31;86.57;;;;;
2023/11/21 04:19:04;;;;;;;8.6;3.1;;;;;;;8.35;86.48;;;;;
2023/11/21 04:29:04;;;;;;;6.9;2.9;;;;;;;8.27;86.78;;;;;
2023/11/21 04:40:06;;;;;;;6.9;2.9;;;;;;;8.22;87.06;;;;;
2023/11/21 04:51:04;;;;;;;7.1;3.4;;;;;;;8.13;87.85;;;;;
2023/11/21 05:01:04;;;;;;;7.1;3.4;;;;;;;8.21;88;;;;;
2023/11/21 05:11:04;;;;;;;7.1;3.4;;;;;;;8.13;88.57;;;;;
2023/11/21 05:22:05;;;;;;;9.4;3.8;;;;;;;8.04;89.36;;;;;
2023/11/21 05:32:04;;;;;;;9.4;3.8;;;;;;;7.98;89.57;;;;;
2023/11/21 05:43:05;;;;;;;9.4;3.8;;;;;;;8.06;89.73;;;;;
2023/11/21 05:53:04;;;;;;;9.1;4.5;;;;;;;8.01;89.99;;;;;
2023/11/21 06:04:04;;;;;;;9.1;4.5;;;;;;;8.07;89.9;;;;;
2023/11/21 06:14:07;;;;;;;9.1;4.5;;;;;;;8.11;89.88;;;;;
2023/11/21 06:24:04;;;;;;;11.2;5;;;;;;;8.21;89.8;;;;;
2023/11/21 06:35:04;;;;;;;11.2;5;;;;;;;8.14;89.81;;;;;
2023/11/21 06:45:04;;;;;;;11.2;5;;;;;;;8.25;89.65;;;;;
2023/11/21 06:55:04;;;;;;;14.8;6.9;;;;;;;8.27;89.3;;;;;
2023/11/21 07:06:04;;;;;;;14.8;6.9;;;;;;;8.29;88.86;;;;;
2023/11/21 07:17:04;;;;;;;14.8;6.9;;;;;;;8.28;88.24;;;;;
2023/11/21 07:28:05;;;;;;;8.9;5.3;;;;;;;8.17;88.19;;;;;
2023/11/21 07:38:04;;;;;;;8.9;5.3;;;;;;;8.21;88.34;;;;;
2023/11/21 07:49:04;;;;;;;8.9;5.3;;;;;;;8.28;88.27;;;;;
2023/11/21 08:00:06;;;;;;;9.1;4.7;;;;;;;8.2;88.32;;;;;
2023/11/21 08:10:04;;;;;;;9.1;4.7;;;;;;;8.55;88.23;;;;;
2023/11/21 08:20:04;;;;;;;9.1;4.7;;;;;;;8.66;88.07;;;;;
2023/11/21 08:31:04;;;;;;;11.1;5;;;;;;;8.84;87.4;;;;;
2023/11/21 08:41:04;;;;;;;11.1;5;;;;;;;8.8;86.88;;;;;
2023/11/21 08:52:05;;;;;;;9.9;5.8;;;;;;;8.97;86.05;;;;;
2023/11/21 09:02:04;;;;;;;9.9;5.8;;;;;;;8.92;86.09;;;;;
2023/11/21 09:12:04;;;;;;;9.9;5.8;;;;;;;9.07;85.37;;;;;
2023/11/21 09:23:04;;;;;;;10.7;5.8;;;;;;;8.97;85.43;;;;;
2023/11/21 09:34:06;;;;;;;10.7;5.8;;;;;;;9.02;85.4;;;;;
2023/11/21 09:44:04;;;;;;;10.7;5.8;;;;;;;9.17;85.42;;;;;
2023/11/21 09:54:06;;;;;;;10.1;6.3;;;;;;;9.25;84.6;;;;;
2023/11/21 10:04:06;;;;;;;10.1;6.3;;;;;;;9.41;83.48;;;;;
2023/11/21 10:15:06;;;;;;;10.1;6.3;;;;;;;9.42;83.66;;;;;
2023/11/21 10:25:07;;;;;;;10.4;5.5;;;;;;;9.77;82.18;;;;;
2023/11/21 10:36:04;;;;;;;10.4;5.5;;;;;;;9.6;81.28;;;;;
2023/11/21 10:47:05;;;;;;;10.4;5.5;;;;;;;9.47;81.32;;;;;
2023/11/21 10:58:04;;;;;;;7.7;4.7;;;;;;;9.51;81.43;;;;;
2023/11/21 11:08:04;;;;;;;7.7;4.7;;;;;;;9.39;80.79;;;;;
2023/11/21 11:19:04;;;;;;;7.7;4.7;;;;;;;9.53;80.31;;;;;
2023/11/21 11:29:06;;;;;;;9.1;5.1;;;;;;;9.37;81.5;;;;;
2023/11/21 11:40:04;;;;;;;9.1;5.1;;;;;;;9.36;80.8;;;;;
2023/11/21 11:51:04;;;;;;;7.7;4.6;;;;;;;9.69;80.88;;;;;
2023/11/21 12:02:06;;;;;;;7.7;4.6;;;;;;;10.01;80.14;;;;;
2023/11/21 12:13:05;;;;;;;7.7;4.6;;;;;;;9.9;78.58;;;;;
2023/11/21 12:24:04;;;;;;;9.3;5.4;;;;;;;10;77.91;;;;;
2023/11/21 12:34:04;;;;;;;9.3;5.4;;;;;;;9.79;78.3;;;;;
2023/11/21 12:45:05;;;;;;;9.3;5.4;;;;;;;9.4;78.63;;;;;
2023/11/21 12:55:07;;;;;;;8.9;6;;;;;;;9.52;79.02;;;;;
2023/11/21 13:05:12;;;;;;;8.9;6;;;;;;;9.32;79.3;;;;;
2023/11/21 13:16:04;;;;;;;8.9;6;;;;;;;9.76;78.43;;;;;
2023/11/21 13:26:04;;;;;;;9.2;5.4;;;;;;;9.47;78.33;;;;;
2023/11/21 13:37:07;;;;;;;9.2;5.4;;;;;;;9.23;79;;;;;
2023/11/21 13:48:07;;;;;;;9.2;5.4;;;;;;;9.01;80.43;;;;;
2023/11/21 13:58:09;;;;;;;10.7;6.1;;;;;;;8.95;81.45;;;;;
2023/11/21 14:09:05;;;;;;;10.7;6.1;;;;;;;9.08;81.55;;;;;
2023/11/21 14:19:15;;;;;;;10.7;6.1;;;;;;;9.08;82.01;;;;;
2023/11/21 14:29:05;;;;;;;13.7;7.6;;;;;;;8.98;82.29;;;;;
2023/11/21 14:40:07;;;;;;;13.7;7.6;;;;;;;8.9;82.5;;;;;
2023/11/21 14:51:55;;;;;;;11.6;7.5;;;;;;;8.8;82.33;;;;;
2023/11/21 15:02:14;;;;;;;11.6;7.5;;;;;;;8.51;82.53;;;;;
2023/11/21 15:12:13;;;;;;;11.6;7.5;;;;;;;8.44;82.58;;;;;
2023/11/21 15:23:05;;;;;;;11.5;5.7;;;;;;;8.34;83.15;;;;;
2023/11/21 15:33:05;;;;;;;11.5;5.7;;;;;;;8.33;83.5;;;;;
2023/11/21 15:44:04;;;;;;;11.5;5.7;;;;;;;8.35;83.72;;;;;
2023/11/21 15:55:05;;;;;;;11.9;6.1;;;;;;;8.28;84.07;;;;;
2023/11/21 16:06:04;;;;;;;11.9;6.1;;;;;;;8.13;84.63;;;;;
2023/11/21 16:16:04;;;;;;;11.9;6.1;;;;;;;8.24;84.22;;;;;
2023/11/21 16:27:04;;;;;;;11.7;5.7;;;;;;;8.21;84.42;;;;;
2023/11/21 16:37:04;;;;;;;11.7;5.7;;;;;;;8.12;84.85;;;;;
2023/11/21 16:47:05;;;;;;;11.7;5.7;;;;;;;8.27;84.41;;;;;
2023/11/21 16:58:05;;;;;;;11.6;6.4;;;;;;;8.09;84.49;;;;;
2023/11/21 17:09:09;;;;;;;11.6;6.4;;;;;;;8.14;84.64;;;;;
2023/11/21 17:20:07;;;;;;;11.7;6.6;;;;;;;8.08;84.49;;;;;
2023/11/21 17:30:05;;;;;;;11.7;6.6;;;;;;;8.01;85.29;;;;;
2023/11/21 17:41:04;;;;;;;11.7;6.6;;;;;;;8.15;85.14;;;;;
2023/11/21 17:52:05;;;;;;;14.4;7.6;;;;;;;8.08;85.33;;;;;
2023/11/21 18:03:04;;;;;;;14.4;7.6;;;;;;;8.13;85.39;;;;;
2023/11/21 18:13:04;;;;;;;14.4;7.6;;;;;;;8.11;85.48;;;;;
2023/11/21 18:24:04;;;;;;;20.1;10.4;;;;;;;8.1;85.87;;;;;
2023/11/21 18:35:04;;;;;;;20.1;10.4;;;;;;;8.08;86.54;;;;;
2023/11/21 18:45:04;;;;;;;20.1;10.4;;;;;;;7.41;85.61;;;;;
2023/11/21 18:55:04;;;;;;;17.8;9.8;;;;;;;6.98;86.41;;;;;
2023/11/21 19:06:04;;;;;;;17.8;9.8;;;;;;;6.09;87.46;;;;;
2023/11/21 19:17:04;;;;;;;17.8;9.8;;;;;;;5.67;88.45;;;;;
2023/11/21 19:28:04;;;;;;;17.8;10.7;;;;;;;5.26;88.82;;;;;
2023/11/21 19:38:04;;;;;;;17.8;10.7;;;;;;;5.01;89.5;;;;;
2023/11/21 19:49:08;;;;;;;17.8;10.7;;;;;;;4.86;88.72;;;;;
2023/11/21 20:00:05;;;;;;;21.9;11.3;;;;;;;4.45;89.85;;;;;
2023/11/21 20:10:05;;;;;;;21.9;11.3;;;;;;;4.17;90.22;;;;;
2023/11/21 20:21:04;;;;;;;16.8;7.4;;;;;;;3.9;90.31;;;;;
2023/11/21 20:32:05;;;;;;;16.8;7.4;;;;;;;3.54;91.06;;;;;
2023/11/21 20:42:04;;;;;;;16.8;7.4;;;;;;;3.68;91;;;;;
2023/11/21 20:52:05;;;;;;;14.4;7.2;;;;;;;3.37;91.47;;;;;
2023/11/21 21:02:06;;;;;;;14.4;7.2;;;;;;;3.49;90.88;;;;;
2023/11/21 21:13:04;;;;;;;14.4;7.2;;;;;;;3.32;90.41;;;;;
2023/11/21 21:24:04;;;;;;;9.8;5.1;;;;;;;3.03;90.67;;;;;
2023/11/21 21:34:04;;;;;;;9.8;5.1;;;;;;;3.09;90.74;;;;;
2023/11/21 21:45:04;;;;;;;9.8;5.1;;;;;;;2.95;90.16;;;;;
2023/11/21 21:55:05;;;;;;;8.8;5.1;;;;;;;2.88;89.82;;;;;
2023/11/21 22:06:04;;;;;;;8.8;5.1;;;;;;;2.66;90.39;;;;;
2023/11/21 22:17:04;;;;;;;8.8;5.1;;;;;;;2.56;89.59;;;;;
2023/11/21 22:27:05;;;;;;;12.4;6.6;;;;;;;2.58;89.46;;;;;
2023/11/21 22:37:05;;;;;;;12.4;6.6;;;;;;;2.51;89.74;;;;;
2023/11/21 22:48:05;;;;;;;12.4;6.6;;;;;;;2.28;90.41;;;;;
2023/11/21 22:58:05;;;;;;;7.8;4.6;;;;;;;2.45;89.81;;;;;
2023/11/21 23:09:05;;;;;;;7.8;4.6;;;;;;;2.3;89.24;;;;;
2023/11/21 23:19:05;;;;;;;7.8;4.6;;;;;;;2.09;87.99;;;;;
2023/11/21 23:30:08;;;;;;;8.3;4.4;;;;;;;1.93;87.67;;;;;
2023/11/21 23:40:06;;;;;;;8.3;4.4;;;;;;;1.43;88.04;;;;;
2023/11/21 23:51:05;;;;;;;13.8;7.5;;;;;;;1.27;88.46;;;;;
